sensor_id;sensor_type;location;lat;lon;timestamp;P1;durP1;ratioP1;P2;durP2;ratioP2
45338;SDS011;31071;51.478;5.710;2022-08-21T00:00:50;12.48;;;8.80;;
45338;SDS011;31071;51.478;5.710;2022-08-21T00:03:16;14.88;;;8.80;;
45338;SDS011;31071;51.478;5.710;2022-08-21T00:05:44;11.73;;;8.60;;
45338;SDS011;31071;51.478;5.710;2022-08-21T00:08:14;11.30;;;8.25;;
45338;SDS011;31071;51.478;5.710;2022-08-21T00:10:40;12.60;;;8.75;;
45338;SDS011;31071;51.478;5.710;2022-08-21T00:13:07;12.23;;;8.73;;
45338;SDS011;31071;51.478;5.710;2022-08-21T00:15:34;14.80;;;9.45;;
45338;SDS011;31071;51.478;5.710;2022-08-21T00:18:01;13.18;;;9.50;;
45338;SDS011;31071;51.478;5.710;2022-08-21T00:20:27;14.40;;;10.05;;
45338;SDS011;31071;51.478;5.710;2022-08-21T00:22:53;15.88;;;9.77;;
45338;SDS011;31071;51.478;5.710;2022-08-21T00:25:19;13.20;;;9.18;;
45338;SDS011;31071;51.478;5.710;2022-08-21T00:27:45;16.23;;;9.40;;
45338;SDS011;31071;51.478;5.710;2022-08-21T00:30:12;11.55;;;8.45;;
45338;SDS011;31071;51.478;5.710;2022-08-21T00:32:39;13.65;;;9.52;;
45338;SDS011;31071;51.478;5.710;2022-08-21T00:35:06;13.90;;;10.25;;
45338;SDS011;31071;51.478;5.710;2022-08-21T00:37:33;14.05;;;9.90;;
45338;SDS011;31071;51.478;5.710;2022-08-21T00:40:00;13.38;;;10.55;;
45338;SDS011;31071;51.478;5.710;2022-08-21T00:42:27;15.98;;;10.38;;
45338;SDS011;31071;51.478;5.710;2022-08-21T00:44:55;14.52;;;10.65;;
45338;SDS011;31071;51.478;5.710;2022-08-21T00:47:20;16.50;;;11.05;;
45338;SDS011;31071;51.478;5.710;2022-08-21T00:49:46;18.00;;;11.55;;
45338;SDS011;31071;51.478;5.710;2022-08-21T00:52:19;19.60;;;10.95;;
45338;SDS011;31071;51.478;5.710;2022-08-21T00:54:47;14.27;;;10.65;;
45338;SDS011;31071;51.478;5.710;2022-08-21T00:57:22;21.33;;;10.40;;
45338;SDS011;31071;51.478;5.710;2022-08-21T00:59:54;13.98;;;10.60;;
45338;SDS011;31071;51.478;5.710;2022-08-21T01:02:21;13.55;;;10.20;;
45338;SDS011;31071;51.478;5.710;2022-08-21T01:04:47;13.85;;;10.65;;
45338;SDS011;31071;51.478;5.710;2022-08-21T01:07:13;15.32;;;10.52;;
45338;SDS011;31071;51.478;5.710;2022-08-21T01:09:39;13.20;;;10.20;;
45338;SDS011;31071;51.478;5.710;2022-08-21T01:12:06;15.95;;;10.65;;
45338;SDS011;31071;51.478;5.710;2022-08-21T01:14:32;17.92;;;10.70;;
45338;SDS011;31071;51.478;5.710;2022-08-21T01:17:03;16.05;;;10.60;;
45338;SDS011;31071;51.478;5.710;2022-08-21T01:19:29;15.85;;;10.85;;
45338;SDS011;31071;51.478;5.710;2022-08-21T01:21:55;14.40;;;10.32;;
45338;SDS011;31071;51.478;5.710;2022-08-21T01:24:21;16.08;;;10.63;;
45338;SDS011;31071;51.478;5.710;2022-08-21T01:26:49;17.70;;;10.65;;
45338;SDS011;31071;51.478;5.710;2022-08-21T01:29:16;16.30;;;10.80;;
45338;SDS011;31071;51.478;5.710;2022-08-21T01:31:45;18.40;;;11.40;;
45338;SDS011;31071;51.478;5.710;2022-08-21T01:34:12;15.68;;;10.80;;
45338;SDS011;31071;51.478;5.710;2022-08-21T01:36:42;14.80;;;11.32;;
45338;SDS011;31071;51.478;5.710;2022-08-21T01:39:09;11.98;;;10.20;;
45338;SDS011;31071;51.478;5.710;2022-08-21T01:41:35;16.50;;;10.82;;
45338;SDS011;31071;51.478;5.710;2022-08-21T01:44:00;14.50;;;10.82;;
45338;SDS011;31071;51.478;5.710;2022-08-21T01:46:26;15.05;;;11.05;;
45338;SDS011;31071;51.478;5.710;2022-08-21T01:48:52;17.85;;;11.60;;
45338;SDS011;31071;51.478;5.710;2022-08-21T01:51:17;11.90;;;10.45;;
45338;SDS011;31071;51.478;5.710;2022-08-21T01:53:43;17.70;;;12.10;;
45338;SDS011;31071;51.478;5.710;2022-08-21T01:56:09;17.75;;;11.80;;
45338;SDS011;31071;51.478;5.710;2022-08-21T01:58:36;15.20;;;11.50;;
45338;SDS011;31071;51.478;5.710;2022-08-21T02:01:02;15.02;;;11.35;;
45338;SDS011;31071;51.478;5.710;2022-08-21T02:03:29;16.38;;;11.85;;
45338;SDS011;31071;51.478;5.710;2022-08-21T02:05:55;13.75;;;11.45;;
45338;SDS011;31071;51.478;5.710;2022-08-21T02:08:24;16.38;;;12.13;;
45338;SDS011;31071;51.478;5.710;2022-08-21T02:10:50;16.63;;;12.65;;
45338;SDS011;31071;51.478;5.710;2022-08-21T02:13:16;21.10;;;12.52;;
45338;SDS011;31071;51.478;5.710;2022-08-21T02:15:43;21.92;;;12.80;;
45338;SDS011;31071;51.478;5.710;2022-08-21T02:18:08;17.60;;;12.65;;
45338;SDS011;31071;51.478;5.710;2022-08-21T02:20:35;20.20;;;12.90;;
45338;SDS011;31071;51.478;5.710;2022-08-21T02:23:05;19.02;;;11.98;;
45338;SDS011;31071;51.478;5.710;2022-08-21T02:25:32;18.33;;;12.15;;
45338;SDS011;31071;51.478;5.710;2022-08-21T02:27:58;16.65;;;11.93;;
45338;SDS011;31071;51.478;5.710;2022-08-21T02:30:28;16.17;;;12.85;;
45338;SDS011;31071;51.478;5.710;2022-08-21T02:32:56;19.40;;;13.10;;
45338;SDS011;31071;51.478;5.710;2022-08-21T02:35:22;21.10;;;13.70;;
45338;SDS011;31071;51.478;5.710;2022-08-21T02:37:52;17.38;;;12.82;;
45338;SDS011;31071;51.478;5.710;2022-08-21T02:40:21;17.27;;;13.65;;
45338;SDS011;31071;51.478;5.710;2022-08-21T02:42:48;20.67;;;12.90;;
45338;SDS011;31071;51.478;5.710;2022-08-21T02:45:15;18.05;;;11.93;;
45338;SDS011;31071;51.478;5.710;2022-08-21T02:47:52;18.55;;;13.45;;
45338;SDS011;31071;51.478;5.710;2022-08-21T02:50:22;19.50;;;13.05;;
45338;SDS011;31071;51.478;5.710;2022-08-21T02:52:49;17.60;;;12.77;;
45338;SDS011;31071;51.478;5.710;2022-08-21T02:55:17;19.00;;;12.80;;
45338;SDS011;31071;51.478;5.710;2022-08-21T02:57:43;19.60;;;12.60;;
45338;SDS011;31071;51.478;5.710;2022-08-21T03:00:10;18.52;;;11.85;;
45338;SDS011;31071;51.478;5.710;2022-08-21T03:02:37;15.95;;;12.40;;
45338;SDS011;31071;51.478;5.710;2022-08-21T03:05:03;16.92;;;12.23;;
45338;SDS011;31071;51.478;5.710;2022-08-21T03:07:30;18.92;;;12.57;;
45338;SDS011;31071;51.478;5.710;2022-08-21T03:09:56;17.27;;;11.23;;
45338;SDS011;31071;51.478;5.710;2022-08-21T03:12:22;16.58;;;12.45;;
45338;SDS011;31071;51.478;5.710;2022-08-21T03:14:48;18.52;;;11.60;;
45338;SDS011;31071;51.478;5.710;2022-08-21T03:17:14;16.45;;;11.82;;
45338;SDS011;31071;51.478;5.710;2022-08-21T03:19:40;16.85;;;12.57;;
45338;SDS011;31071;51.478;5.710;2022-08-21T03:22:05;16.42;;;12.15;;
45338;SDS011;31071;51.478;5.710;2022-08-21T03:24:31;15.80;;;12.18;;
45338;SDS011;31071;51.478;5.710;2022-08-21T03:26:56;20.17;;;13.80;;
45338;SDS011;31071;51.478;5.710;2022-08-21T03:29:22;20.40;;;14.40;;
45338;SDS011;31071;51.478;5.710;2022-08-21T03:31:48;19.85;;;14.00;;
45338;SDS011;31071;51.478;5.710;2022-08-21T03:34:13;24.48;;;15.90;;
45338;SDS011;31071;51.478;5.710;2022-08-21T03:36:39;18.63;;;14.05;;
45338;SDS011;31071;51.478;5.710;2022-08-21T03:39:05;19.25;;;15.05;;
45338;SDS011;31071;51.478;5.710;2022-08-21T03:41:30;15.65;;;13.85;;
45338;SDS011;31071;51.478;5.710;2022-08-21T03:43:56;20.42;;;13.20;;
45338;SDS011;31071;51.478;5.710;2022-08-21T03:46:21;18.80;;;12.48;;
45338;SDS011;31071;51.478;5.710;2022-08-21T03:48:47;19.90;;;12.85;;
45338;SDS011;31071;51.478;5.710;2022-08-21T03:51:13;18.80;;;14.02;;
45338;SDS011;31071;51.478;5.710;2022-08-21T03:53:38;22.42;;;12.77;;
45338;SDS011;31071;51.478;5.710;2022-08-21T03:56:04;19.60;;;13.20;;
45338;SDS011;31071;51.478;5.710;2022-08-21T03:58:30;16.30;;;12.27;;
45338;SDS011;31071;51.478;5.710;2022-08-21T04:00:57;15.88;;;12.88;;
45338;SDS011;31071;51.478;5.710;2022-08-21T04:03:25;26.35;;;14.25;;
45338;SDS011;31071;51.478;5.710;2022-08-21T04:05:51;18.17;;;13.02;;
45338;SDS011;31071;51.478;5.710;2022-08-21T04:08:17;17.35;;;12.63;;
45338;SDS011;31071;51.478;5.710;2022-08-21T04:10:44;18.55;;;12.23;;
45338;SDS011;31071;51.478;5.710;2022-08-21T04:13:12;16.48;;;13.52;;
45338;SDS011;31071;51.478;5.710;2022-08-21T04:18:12;19.40;;;13.27;;
45338;SDS011;31071;51.478;5.710;2022-08-21T04:20:38;18.25;;;13.02;;
45338;SDS011;31071;51.478;5.710;2022-08-21T04:23:05;17.40;;;12.60;;
45338;SDS011;31071;51.478;5.710;2022-08-21T04:25:31;17.23;;;12.82;;
45338;SDS011;31071;51.478;5.710;2022-08-21T04:27:57;16.63;;;12.25;;
45338;SDS011;31071;51.478;5.710;2022-08-21T04:30:23;17.45;;;11.35;;
45338;SDS011;31071;51.478;5.710;2022-08-21T04:32:49;20.13;;;11.90;;
45338;SDS011;31071;51.478;5.710;2022-08-21T04:35:17;16.17;;;11.52;;
45338;SDS011;31071;51.478;5.710;2022-08-21T04:37:45;17.80;;;12.30;;
45338;SDS011;31071;51.478;5.710;2022-08-21T04:40:12;20.23;;;12.32;;
45338;SDS011;31071;51.478;5.710;2022-08-21T04:42:43;16.63;;;12.30;;
45338;SDS011;31071;51.478;5.710;2022-08-21T04:45:28;15.38;;;11.23;;
45338;SDS011;31071;51.478;5.710;2022-08-21T04:47:56;15.18;;;11.10;;
45338;SDS011;31071;51.478;5.710;2022-08-21T04:50:43;17.63;;;11.25;;
45338;SDS011;31071;51.478;5.710;2022-08-21T04:53:18;21.20;;;11.38;;
45338;SDS011;31071;51.478;5.710;2022-08-21T04:56:01;14.13;;;10.82;;
45338;SDS011;31071;51.478;5.710;2022-08-21T04:58:30;18.50;;;10.75;;
45338;SDS011;31071;51.478;5.710;2022-08-21T05:01:07;16.30;;;11.15;;
45338;SDS011;31071;51.478;5.710;2022-08-21T05:03:36;17.52;;;10.88;;
45338;SDS011;31071;51.478;5.710;2022-08-21T05:06:06;14.73;;;10.45;;
45338;SDS011;31071;51.478;5.710;2022-08-21T05:08:34;13.95;;;10.38;;
45338;SDS011;31071;51.478;5.710;2022-08-21T05:11:00;20.33;;;11.25;;
45338;SDS011;31071;51.478;5.710;2022-08-21T05:13:27;14.70;;;10.38;;
45338;SDS011;31071;51.478;5.710;2022-08-21T05:15:54;16.15;;;10.38;;
45338;SDS011;31071;51.478;5.710;2022-08-21T05:18:20;20.80;;;11.18;;
45338;SDS011;31071;51.478;5.710;2022-08-21T05:20:46;16.83;;;11.02;;
45338;SDS011;31071;51.478;5.710;2022-08-21T05:23:12;14.65;;;9.90;;
45338;SDS011;31071;51.478;5.710;2022-08-21T05:25:39;16.50;;;11.10;;
45338;SDS011;31071;51.478;5.710;2022-08-21T05:28:06;15.10;;;9.98;;
45338;SDS011;31071;51.478;5.710;2022-08-21T05:30:32;14.27;;;10.48;;
45338;SDS011;31071;51.478;5.710;2022-08-21T05:32:59;21.15;;;11.38;;
45338;SDS011;31071;51.478;5.710;2022-08-21T05:35:27;16.83;;;11.32;;
45338;SDS011;31071;51.478;5.710;2022-08-21T05:37:53;13.95;;;10.68;;
45338;SDS011;31071;51.478;5.710;2022-08-21T05:40:19;17.13;;;10.63;;
45338;SDS011;31071;51.478;5.710;2022-08-21T05:42:45;12.45;;;9.95;;
45338;SDS011;31071;51.478;5.710;2022-08-21T05:45:11;15.63;;;10.20;;
45338;SDS011;31071;51.478;5.710;2022-08-21T05:47:36;15.25;;;9.02;;
45338;SDS011;31071;51.478;5.710;2022-08-21T05:50:03;16.33;;;9.77;;
45338;SDS011;31071;51.478;5.710;2022-08-21T05:52:29;15.45;;;9.55;;
45338;SDS011;31071;51.478;5.710;2022-08-21T05:54:55;15.25;;;8.90;;
45338;SDS011;31071;51.478;5.710;2022-08-21T05:57:28;14.98;;;8.70;;
45338;SDS011;31071;51.478;5.710;2022-08-21T05:59:54;16.92;;;8.13;;
45338;SDS011;31071;51.478;5.710;2022-08-21T06:02:20;12.80;;;8.05;;
45338;SDS011;31071;51.478;5.710;2022-08-21T06:04:46;13.00;;;8.25;;
45338;SDS011;31071;51.478;5.710;2022-08-21T06:07:12;15.90;;;9.38;;
45338;SDS011;31071;51.478;5.710;2022-08-21T06:09:38;14.27;;;7.80;;
45338;SDS011;31071;51.478;5.710;2022-08-21T06:12:07;12.57;;;7.93;;
45338;SDS011;31071;51.478;5.710;2022-08-21T06:14:35;15.98;;;7.93;;
45338;SDS011;31071;51.478;5.710;2022-08-21T06:17:06;13.50;;;7.97;;
45338;SDS011;31071;51.478;5.710;2022-08-21T06:19:34;13.57;;;7.57;;
45338;SDS011;31071;51.478;5.710;2022-08-21T06:22:00;11.73;;;7.15;;
45338;SDS011;31071;51.478;5.710;2022-08-21T06:24:26;14.25;;;6.78;;
45338;SDS011;31071;51.478;5.710;2022-08-21T06:26:52;10.60;;;6.50;;
45338;SDS011;31071;51.478;5.710;2022-08-21T06:29:19;12.52;;;6.80;;
45338;SDS011;31071;51.478;5.710;2022-08-21T06:31:46;13.82;;;6.75;;
45338;SDS011;31071;51.478;5.710;2022-08-21T06:34:13;12.25;;;6.20;;
45338;SDS011;31071;51.478;5.710;2022-08-21T06:36:39;13.85;;;7.03;;
45338;SDS011;31071;51.478;5.710;2022-08-21T06:39:05;9.45;;;5.55;;
45338;SDS011;31071;51.478;5.710;2022-08-21T06:41:31;11.77;;;6.68;;
45338;SDS011;31071;51.478;5.710;2022-08-21T06:43:57;11.27;;;6.50;;
45338;SDS011;31071;51.478;5.710;2022-08-21T06:46:30;10.55;;;6.07;;
45338;SDS011;31071;51.478;5.710;2022-08-21T06:48:56;8.98;;;5.82;;
45338;SDS011;31071;51.478;5.710;2022-08-21T06:51:23;16.40;;;6.65;;
45338;SDS011;31071;51.478;5.710;2022-08-21T06:53:50;12.85;;;5.88;;
45338;SDS011;31071;51.478;5.710;2022-08-21T06:56:16;11.13;;;6.03;;
45338;SDS011;31071;51.478;5.710;2022-08-21T06:58:41;10.85;;;6.07;;
45338;SDS011;31071;51.478;5.710;2022-08-21T07:01:07;8.48;;;4.70;;
45338;SDS011;31071;51.478;5.710;2022-08-21T07:03:34;12.32;;;5.80;;
45338;SDS011;31071;51.478;5.710;2022-08-21T07:06:05;12.35;;;5.55;;
45338;SDS011;31071;51.478;5.710;2022-08-21T07:08:31;12.40;;;5.55;;
45338;SDS011;31071;51.478;5.710;2022-08-21T07:10:58;13.98;;;5.32;;
45338;SDS011;31071;51.478;5.710;2022-08-21T07:13:25;11.63;;;5.50;;
45338;SDS011;31071;51.478;5.710;2022-08-21T07:15:52;19.10;;;6.53;;
45338;SDS011;31071;51.478;5.710;2022-08-21T07:18:17;12.60;;;6.03;;
45338;SDS011;31071;51.478;5.710;2022-08-21T07:20:43;11.70;;;4.90;;
45338;SDS011;31071;51.478;5.710;2022-08-21T07:23:11;10.48;;;4.68;;
45338;SDS011;31071;51.478;5.710;2022-08-21T07:25:42;13.60;;;4.78;;
45338;SDS011;31071;51.478;5.710;2022-08-21T07:28:07;12.60;;;4.70;;
45338;SDS011;31071;51.478;5.710;2022-08-21T07:30:33;10.20;;;4.68;;
45338;SDS011;31071;51.478;5.710;2022-08-21T07:32:59;10.27;;;4.40;;
45338;SDS011;31071;51.478;5.710;2022-08-21T07:35:24;10.38;;;4.57;;
45338;SDS011;31071;51.478;5.710;2022-08-21T07:37:50;14.32;;;4.93;;
45338;SDS011;31071;51.478;5.710;2022-08-21T07:40:16;11.45;;;4.75;;
45338;SDS011;31071;51.478;5.710;2022-08-21T07:42:42;7.20;;;4.25;;
45338;SDS011;31071;51.478;5.710;2022-08-21T07:45:10;14.90;;;4.47;;
45338;SDS011;31071;51.478;5.710;2022-08-21T07:47:36;9.45;;;4.00;;
45338;SDS011;31071;51.478;5.710;2022-08-21T07:50:03;12.15;;;4.85;;
45338;SDS011;31071;51.478;5.710;2022-08-21T07:52:29;10.93;;;4.40;;
45338;SDS011;31071;51.478;5.710;2022-08-21T07:54:55;13.55;;;4.93;;
45338;SDS011;31071;51.478;5.710;2022-08-21T07:57:20;10.55;;;4.85;;
45338;SDS011;31071;51.478;5.710;2022-08-21T07:59:46;19.48;;;4.22;;
45338;SDS011;31071;51.478;5.710;2022-08-21T08:02:21;15.25;;;4.13;;
45338;SDS011;31071;51.478;5.710;2022-08-21T08:04:50;12.27;;;3.90;;
45338;SDS011;31071;51.478;5.710;2022-08-21T08:07:16;11.75;;;4.07;;
45338;SDS011;31071;51.478;5.710;2022-08-21T08:09:42;10.60;;;3.30;;
45338;SDS011;31071;51.478;5.710;2022-08-21T08:12:08;14.57;;;4.20;;
45338;SDS011;31071;51.478;5.710;2022-08-21T08:14:33;13.63;;;3.25;;
45338;SDS011;31071;51.478;5.710;2022-08-21T08:16:59;12.27;;;3.85;;
45338;SDS011;31071;51.478;5.710;2022-08-21T08:19:26;14.45;;;4.20;;
45338;SDS011;31071;51.478;5.710;2022-08-21T08:21:51;13.50;;;3.38;;
45338;SDS011;31071;51.478;5.710;2022-08-21T08:24:17;10.50;;;3.30;;
45338;SDS011;31071;51.478;5.710;2022-08-21T08:26:54;10.93;;;2.65;;
45338;SDS011;31071;51.478;5.710;2022-08-21T08:29:22;9.68;;;2.78;;
45338;SDS011;31071;51.478;5.710;2022-08-21T08:31:47;8.45;;;2.60;;
45338;SDS011;31071;51.478;5.710;2022-08-21T08:34:13;12.80;;;2.80;;
45338;SDS011;31071;51.478;5.710;2022-08-21T08:36:38;11.75;;;2.75;;
45338;SDS011;31071;51.478;5.710;2022-08-21T08:39:04;13.18;;;2.75;;
45338;SDS011;31071;51.478;5.710;2022-08-21T08:41:31;11.65;;;2.83;;
45338;SDS011;31071;51.478;5.710;2022-08-21T08:43:59;9.95;;;2.90;;
45338;SDS011;31071;51.478;5.710;2022-08-21T08:49:10;13.00;;;2.85;;
45338;SDS011;31071;51.478;5.710;2022-08-21T08:52:01;10.77;;;2.72;;
45338;SDS011;31071;51.478;5.710;2022-08-21T08:54:39;13.63;;;2.83;;
45338;SDS011;31071;51.478;5.710;2022-08-21T08:57:13;10.43;;;2.72;;
45338;SDS011;31071;51.478;5.710;2022-08-21T08:59:45;10.18;;;2.22;;
45338;SDS011;31071;51.478;5.710;2022-08-21T09:02:20;11.45;;;2.47;;
45338;SDS011;31071;51.478;5.710;2022-08-21T09:04:48;9.20;;;2.42;;
45338;SDS011;31071;51.478;5.710;2022-08-21T09:07:39;10.60;;;2.08;;
45338;SDS011;31071;51.478;5.710;2022-08-21T09:15:45;7.68;;;2.80;;
45338;SDS011;31071;51.478;5.710;2022-08-21T09:18:29;7.82;;;1.92;;
45338;SDS011;31071;51.478;5.710;2022-08-21T09:21:30;14.70;;;2.42;;
45338;SDS011;31071;51.478;5.710;2022-08-21T09:24:41;9.15;;;1.92;;
45338;SDS011;31071;51.478;5.710;2022-08-21T09:27:25;9.05;;;1.85;;
45338;SDS011;31071;51.478;5.710;2022-08-21T09:29:52;10.05;;;1.80;;
45338;SDS011;31071;51.478;5.710;2022-08-21T09:32:29;4.72;;;1.73;;
45338;SDS011;31071;51.478;5.710;2022-08-21T09:35:01;7.32;;;1.80;;
45338;SDS011;31071;51.478;5.710;2022-08-21T09:37:28;6.15;;;1.80;;
45338;SDS011;31071;51.478;5.710;2022-08-21T09:39:56;4.88;;;1.70;;
45338;SDS011;31071;51.478;5.710;2022-08-21T09:42:28;9.15;;;1.88;;
45338;SDS011;31071;51.478;5.710;2022-08-21T09:45:09;4.68;;;1.50;;
45338;SDS011;31071;51.478;5.710;2022-08-21T09:47:37;6.32;;;1.35;;
45338;SDS011;31071;51.478;5.710;2022-08-21T09:50:10;6.68;;;2.00;;
45338;SDS011;31071;51.478;5.710;2022-08-21T09:52:41;7.85;;;2.00;;
45338;SDS011;31071;51.478;5.710;2022-08-21T09:55:20;7.88;;;1.85;;
45338;SDS011;31071;51.478;5.710;2022-08-21T09:58:14;7.65;;;1.63;;
45338;SDS011;31071;51.478;5.710;2022-08-21T10:00:41;9.90;;;2.05;;
45338;SDS011;31071;51.478;5.710;2022-08-21T10:03:11;9.95;;;1.90;;
45338;SDS011;31071;51.478;5.710;2022-08-21T10:05:37;6.55;;;1.60;;
45338;SDS011;31071;51.478;5.710;2022-08-21T10:08:03;6.97;;;1.77;;
45338;SDS011;31071;51.478;5.710;2022-08-21T10:10:31;9.48;;;1.80;;
45338;SDS011;31071;51.478;5.710;2022-08-21T10:13:07;7.93;;;1.60;;
45338;SDS011;31071;51.478;5.710;2022-08-21T10:15:56;6.65;;;1.70;;
45338;SDS011;31071;51.478;5.710;2022-08-21T10:18:41;10.18;;;1.83;;
45338;SDS011;31071;51.478;5.710;2022-08-21T10:23:58;7.38;;;1.42;;
45338;SDS011;31071;51.478;5.710;2022-08-21T10:31:50;5.38;;;1.60;;
45338;SDS011;31071;51.478;5.710;2022-08-21T10:40:59;4.80;;;1.80;;
45338;SDS011;31071;51.478;5.710;2022-08-21T10:43:52;5.95;;;1.73;;
45338;SDS011;31071;51.478;5.710;2022-08-21T10:49:13;5.88;;;1.42;;
45338;SDS011;31071;51.478;5.710;2022-08-21T10:57:22;3.60;;;1.48;;
45338;SDS011;31071;51.478;5.710;2022-08-21T11:00:04;4.90;;;1.55;;
45338;SDS011;31071;51.478;5.710;2022-08-21T11:05:17;5.28;;;1.42;;
45338;SDS011;31071;51.478;5.710;2022-08-21T11:10:41;8.07;;;1.50;;
45338;SDS011;31071;51.478;5.710;2022-08-21T11:27:18;6.43;;;1.75;;
45338;SDS011;31071;51.478;5.710;2022-08-21T11:30:12;6.35;;;1.05;;
45338;SDS011;31071;51.478;5.710;2022-08-21T11:54:43;4.00;;;1.67;;
45338;SDS011;31071;51.478;5.710;2022-08-21T11:57:30;7.97;;;1.60;;
45338;SDS011;31071;51.478;5.710;2022-08-21T12:02:45;6.47;;;2.03;;
45338;SDS011;31071;51.478;5.710;2022-08-21T12:05:30;4.27;;;1.73;;
45338;SDS011;31071;51.478;5.710;2022-08-21T12:08:05;5.15;;;2.20;;
45338;SDS011;31071;51.478;5.710;2022-08-21T12:10:35;4.13;;;2.20;;
45338;SDS011;31071;51.478;5.710;2022-08-21T12:13:05;4.05;;;1.73;;
45338;SDS011;31071;51.478;5.710;2022-08-21T12:15:39;5.53;;;1.88;;
45338;SDS011;31071;51.478;5.710;2022-08-21T12:18:22;4.25;;;2.08;;
45338;SDS011;31071;51.478;5.710;2022-08-21T12:34:37;5.60;;;2.45;;
45338;SDS011;31071;51.478;5.710;2022-08-21T12:39:54;4.07;;;2.22;;
45338;SDS011;31071;51.478;5.710;2022-08-21T12:42:28;5.40;;;2.00;;
45338;SDS011;31071;51.478;5.710;2022-08-21T12:47:55;3.65;;;2.10;;
45338;SDS011;31071;51.478;5.710;2022-08-21T12:50:39;3.78;;;2.25;;
45338;SDS011;31071;51.478;5.710;2022-08-21T12:56:17;9.23;;;4.25;;
45338;SDS011;31071;51.478;5.710;2022-08-21T12:59:04;5.65;;;1.92;;
45338;SDS011;31071;51.478;5.710;2022-08-21T13:01:39;6.97;;;2.22;;
45338;SDS011;31071;51.478;5.710;2022-08-21T13:04:57;4.70;;;2.30;;
45338;SDS011;31071;51.478;5.710;2022-08-21T13:07:07;7.95;;;2.17;;
45338;SDS011;31071;51.478;5.710;2022-08-21T13:09:39;7.65;;;2.17;;
45338;SDS011;31071;51.478;5.710;2022-08-21T13:12:10;4.75;;;1.98;;
45338;SDS011;31071;51.478;5.710;2022-08-21T13:14:40;8.57;;;2.42;;
45338;SDS011;31071;51.478;5.710;2022-08-21T13:17:10;5.43;;;2.05;;
45338;SDS011;31071;51.478;5.710;2022-08-21T13:19:36;4.68;;;1.73;;
45338;SDS011;31071;51.478;5.710;2022-08-21T13:22:03;6.43;;;2.30;;
45338;SDS011;31071;51.478;5.710;2022-08-21T13:24:36;3.97;;;1.98;;
45338;SDS011;31071;51.478;5.710;2022-08-21T13:27:15;7.57;;;2.00;;
45338;SDS011;31071;51.478;5.710;2022-08-21T13:30:03;5.53;;;2.10;;
45338;SDS011;31071;51.478;5.710;2022-08-21T13:32:35;5.13;;;1.93;;
45338;SDS011;31071;51.478;5.710;2022-08-21T13:35:09;3.75;;;1.83;;
45338;SDS011;31071;51.478;5.710;2022-08-21T13:37:38;6.13;;;2.08;;
45338;SDS011;31071;51.478;5.710;2022-08-21T13:40:06;5.20;;;2.05;;
45338;SDS011;31071;51.478;5.710;2022-08-21T13:42:37;6.85;;;2.13;;
45338;SDS011;31071;51.478;5.710;2022-08-21T13:45:10;5.28;;;2.22;;
45338;SDS011;31071;51.478;5.710;2022-08-21T13:47:42;5.38;;;2.05;;
45338;SDS011;31071;51.478;5.710;2022-08-21T13:50:11;4.82;;;2.13;;
45338;SDS011;31071;51.478;5.710;2022-08-21T13:52:46;6.78;;;2.28;;
45338;SDS011;31071;51.478;5.710;2022-08-21T13:55:18;4.18;;;2.45;;
45338;SDS011;31071;51.478;5.710;2022-08-21T13:57:44;4.95;;;2.67;;
45338;SDS011;31071;51.478;5.710;2022-08-21T14:02:37;4.82;;;2.95;;
45338;SDS011;31071;51.478;5.710;2022-08-21T14:05:05;6.82;;;2.75;;
45338;SDS011;31071;51.478;5.710;2022-08-21T14:07:33;7.55;;;2.13;;
45338;SDS011;31071;51.478;5.710;2022-08-21T14:10:07;5.43;;;2.60;;
45338;SDS011;31071;51.478;5.710;2022-08-21T14:12:43;5.38;;;2.47;;
45338;SDS011;31071;51.478;5.710;2022-08-21T14:15:17;4.65;;;2.03;;
45338;SDS011;31071;51.478;5.710;2022-08-21T14:17:47;4.93;;;2.40;;
45338;SDS011;31071;51.478;5.710;2022-08-21T14:20:28;5.88;;;2.38;;
45338;SDS011;31071;51.478;5.710;2022-08-21T14:22:56;5.93;;;2.90;;
45338;SDS011;31071;51.478;5.710;2022-08-21T14:27:51;6.93;;;2.75;;
45338;SDS011;31071;51.478;5.710;2022-08-21T14:30:18;6.00;;;2.72;;
45338;SDS011;31071;51.478;5.710;2022-08-21T14:32:46;9.23;;;3.25;;
45338;SDS011;31071;51.478;5.710;2022-08-21T14:35:13;9.65;;;4.25;;
45338;SDS011;31071;51.478;5.710;2022-08-21T14:37:42;7.13;;;3.70;;
45338;SDS011;31071;51.478;5.710;2022-08-21T14:40:09;8.35;;;2.67;;
45338;SDS011;31071;51.478;5.710;2022-08-21T14:42:39;8.80;;;3.65;;
45338;SDS011;31071;51.478;5.710;2022-08-21T14:47:58;6.68;;;2.90;;
45338;SDS011;31071;51.478;5.710;2022-08-21T14:50:24;8.35;;;4.57;;
45338;SDS011;31071;51.478;5.710;2022-08-21T14:52:51;6.47;;;3.30;;
45338;SDS011;31071;51.478;5.710;2022-08-21T14:55:17;7.28;;;3.15;;
45338;SDS011;31071;51.478;5.710;2022-08-21T14:57:47;6.95;;;3.28;;
45338;SDS011;31071;51.478;5.710;2022-08-21T15:00:17;7.43;;;2.80;;
45338;SDS011;31071;51.478;5.710;2022-08-21T15:02:45;6.45;;;3.05;;
45338;SDS011;31071;51.478;5.710;2022-08-21T15:05:11;6.88;;;2.80;;
45338;SDS011;31071;51.478;5.710;2022-08-21T15:07:37;9.68;;;3.40;;
45338;SDS011;31071;51.478;5.710;2022-08-21T15:10:03;9.15;;;2.80;;
45338;SDS011;31071;51.478;5.710;2022-08-21T15:12:30;10.75;;;3.10;;
45338;SDS011;31071;51.478;5.710;2022-08-21T15:14:55;7.85;;;2.92;;
45338;SDS011;31071;51.478;5.710;2022-08-21T15:17:21;10.75;;;2.53;;
45338;SDS011;31071;51.478;5.710;2022-08-21T15:19:47;9.00;;;3.10;;
45338;SDS011;31071;51.478;5.710;2022-08-21T15:22:13;5.55;;;2.03;;
45338;SDS011;31071;51.478;5.710;2022-08-21T15:24:38;6.93;;;3.00;;
45338;SDS011;31071;51.478;5.710;2022-08-21T15:27:06;10.43;;;5.20;;
45338;SDS011;31071;51.478;5.710;2022-08-21T15:29:34;8.98;;;3.10;;
45338;SDS011;31071;51.478;5.710;2022-08-21T15:32:00;9.23;;;3.30;;
45338;SDS011;31071;51.478;5.710;2022-08-21T15:34:47;5.07;;;3.53;;
45338;SDS011;31071;51.478;5.710;2022-08-21T15:37:14;9.93;;;5.18;;
45338;SDS011;31071;51.478;5.710;2022-08-21T15:39:40;11.02;;;3.20;;
45338;SDS011;31071;51.478;5.710;2022-08-21T15:42:05;7.57;;;3.47;;
45338;SDS011;31071;51.478;5.710;2022-08-21T15:44:31;10.07;;;3.28;;
45338;SDS011;31071;51.478;5.710;2022-08-21T15:46:58;6.90;;;3.33;;
45338;SDS011;31071;51.478;5.710;2022-08-21T15:49:24;6.93;;;2.60;;
45338;SDS011;31071;51.478;5.710;2022-08-21T15:51:49;8.15;;;2.90;;
45338;SDS011;31071;51.478;5.710;2022-08-21T15:54:15;10.02;;;3.05;;
45338;SDS011;31071;51.478;5.710;2022-08-21T15:56:43;8.68;;;2.78;;
45338;SDS011;31071;51.478;5.710;2022-08-21T15:59:13;8.35;;;3.15;;
45338;SDS011;31071;51.478;5.710;2022-08-21T16:01:43;10.60;;;3.20;;
45338;SDS011;31071;51.478;5.710;2022-08-21T16:04:09;7.63;;;2.85;;
45338;SDS011;31071;51.478;5.710;2022-08-21T16:06:39;7.93;;;2.58;;
45338;SDS011;31071;51.478;5.710;2022-08-21T16:09:05;9.15;;;2.42;;
45338;SDS011;31071;51.478;5.710;2022-08-21T16:11:31;8.57;;;3.10;;
45338;SDS011;31071;51.478;5.710;2022-08-21T16:13:57;7.00;;;2.45;;
45338;SDS011;31071;51.478;5.710;2022-08-21T16:16:23;6.85;;;3.10;;
45338;SDS011;31071;51.478;5.710;2022-08-21T16:18:49;8.88;;;2.28;;
45338;SDS011;31071;51.478;5.710;2022-08-21T16:21:16;8.45;;;2.88;;
45338;SDS011;31071;51.478;5.710;2022-08-21T16:23:41;6.13;;;2.53;;
45338;SDS011;31071;51.478;5.710;2022-08-21T16:26:08;7.53;;;2.80;;
45338;SDS011;31071;51.478;5.710;2022-08-21T16:28:36;10.85;;;2.97;;
45338;SDS011;31071;51.478;5.710;2022-08-21T16:31:05;6.50;;;2.17;;
45338;SDS011;31071;51.478;5.710;2022-08-21T16:33:42;6.20;;;2.50;;
45338;SDS011;31071;51.478;5.710;2022-08-21T16:36:15;7.82;;;2.45;;